createdAt,value
2019-03-11T00:04:54.470Z,99.90
2019-03-11T00:10:00.565Z,99.90
2019-03-11T00:15:08.338Z,99.90
2019-03-11T00:20:15.365Z,99.90
2019-03-11T00:25:21.448Z,99.90
2019-03-11T00:30:27.725Z,99.90
2019-03-11T00:35:33.800Z,99.90
2019-03-11T00:40:39.764Z,99.90
2019-03-11T00:45:45.895Z,99.90
2019-03-11T00:50:51.859Z,99.90
2019-03-11T00:55:57.922Z,99.90
2019-03-11T01:01:04.089Z,99.90
2019-03-11T01:06:10.055Z,99.90
2019-03-11T01:11:16.117Z,99.90
2019-03-11T01:16:22.177Z,99.90
2019-03-11T01:21:28.088Z,99.90
2019-03-11T01:26:34.354Z,99.90
2019-03-11T01:31:40.477Z,99.90
2019-03-11T01:36:46.539Z,99.90
2019-03-11T01:41:52.506Z,99.90
2019-03-11T01:46:58.539Z,99.90
2019-03-11T01:52:04.728Z,99.90
2019-03-11T01:57:10.812Z,99.90
2019-03-11T02:02:16.811Z,99.90
2019-03-11T02:07:22.739Z,99.90
2019-03-11T02:12:29.038Z,99.90
2019-03-11T02:17:35.087Z,99.90
2019-03-11T02:22:41.177Z,99.90
2019-03-11T02:27:47.235Z,99.90
2019-03-11T02:32:53.536Z,99.90
2019-03-11T02:38:00.850Z,99.90
2019-03-11T02:43:07.711Z,99.90
2019-03-11T02:48:13.804Z,99.90
2019-03-11T02:53:19.987Z,99.90
2019-03-11T02:58:26.054Z,99.90
2019-03-11T03:03:40.376Z,99.90
2019-03-11T03:08:46.510Z,99.90
2019-03-11T03:13:52.477Z,99.90
2019-03-11T03:18:58.447Z,99.90
2019-03-11T03:24:04.567Z,99.90
2019-03-11T03:29:10.683Z,99.90
2019-03-11T03:34:17.686Z,99.90
2019-03-11T03:39:23.893Z,99.90
2019-03-11T03:44:30.044Z,99.90
2019-03-11T03:49:36.229Z,99.90
2019-03-11T03:54:42.402Z,99.90
2019-03-11T03:59:48.372Z,99.90
2019-03-11T04:04:54.458Z,99.90
2019-03-11T04:10:00.574Z,99.90
2019-03-11T04:15:06.693Z,99.90
2019-03-11T04:20:14.527Z,99.90
2019-03-11T04:25:20.693Z,99.90
2019-03-11T04:30:26.864Z,99.90
2019-03-11T04:35:32.864Z,99.90
2019-03-11T04:40:38.807Z,99.90
2019-03-11T04:45:44.941Z,99.90
2019-03-11T04:50:50.937Z,99.90
2019-03-11T04:55:56.944Z,99.90
2019-03-11T05:01:03.198Z,99.90
2019-03-11T05:06:09.379Z,99.90
2019-03-11T05:11:15.471Z,99.90
2019-03-11T05:16:21.441Z,99.90
2019-03-11T05:21:27.534Z,99.90
2019-03-11T05:26:33.670Z,99.90
2019-03-11T05:31:39.964Z,99.90
2019-03-11T05:36:45.984Z,99.90
2019-03-11T05:41:52.041Z,99.90
2019-03-11T05:47:00.420Z,99.90
2019-03-11T05:52:06.439Z,99.90
2019-03-11T05:57:12.404Z,99.90
2019-03-11T06:02:18.416Z,99.90
2019-03-11T06:07:24.415Z,99.90
2019-03-11T06:12:30.621Z,99.90
2019-03-11T06:17:36.895Z,99.90
2019-03-11T06:22:42.976Z,99.90
2019-03-11T06:27:48.972Z,99.90
2019-03-11T06:32:54.912Z,99.90
2019-03-11T06:38:00.946Z,99.90
2019-03-11T06:43:07.162Z,99.90
2019-03-11T06:48:13.345Z,99.90
2019-03-11T06:53:19.368Z,99.90
2019-03-11T06:58:25.385Z,99.90
2019-03-11T07:03:31.263Z,99.90
2019-03-11T07:08:37.340Z,99.90
2019-03-11T07:13:43.310Z,99.90
2019-03-11T07:18:49.483Z,99.90
2019-03-11T07:23:55.378Z,99.90
2019-03-11T07:29:01.493Z,99.90
2019-03-11T07:34:07.499Z,99.90
2019-03-11T07:39:13.581Z,99.90
2019-03-11T07:44:19.537Z,99.90
2019-03-11T07:49:25.517Z,99.90
2019-03-11T07:54:35.680Z,99.90
2019-03-11T07:59:39.210Z,99.90
2019-03-11T08:04:45.388Z,99.90
2019-03-11T08:09:51.463Z,99.90
2019-03-11T08:14:57.484Z,99.90
2019-03-11T08:20:03.418Z,99.90
2019-03-11T08:25:10.046Z,99.90
2019-03-11T08:30:16.013Z,99.90
2019-03-11T08:35:22.028Z,99.90
2019-03-11T08:40:28.197Z,99.90
2019-03-11T08:45:35.208Z,99.90
2019-03-11T08:50:41.283Z,99.90
2019-03-11T08:55:47.472Z,99.90
2019-03-11T09:00:53.562Z,99.90
2019-03-11T09:05:59.549Z,99.90
2019-03-11T09:11:05.492Z,98.70
2019-03-11T09:16:11.589Z,97.80
2019-03-11T09:21:17.733Z,97.40
2019-03-11T09:26:23.916Z,97.20
2019-03-11T09:31:30.024Z,97.80
2019-03-11T09:36:36.067Z,95.90
2019-03-11T09:41:42.113Z,95.50
2019-03-11T09:46:48.193Z,90.70
2019-03-11T09:51:54.276Z,88.00
2019-03-11T09:57:01.320Z,79.30
2019-03-11T10:02:07.363Z,79.00
2019-03-11T10:07:13.539Z,90.70
2019-03-11T10:12:19.626Z,92.00
2019-03-11T10:17:25.582Z,84.90
2019-03-11T10:22:31.476Z,72.30
2019-03-11T10:27:38.441Z,81.70
2019-03-11T10:32:44.505Z,84.90
2019-03-11T10:37:50.604Z,76.40
2019-03-11T10:42:56.772Z,69.50
2019-03-11T10:48:03.012Z,59.10
2019-03-11T10:53:08.925Z,58.40
2019-03-11T10:58:14.951Z,56.80
2019-03-11T11:03:21.067Z,61.30
2019-03-11T11:08:27.264Z,57.20
2019-03-11T11:13:33.228Z,68.70
2019-03-11T11:18:39.293Z,82.80
2019-03-11T11:23:45.453Z,85.30
2019-03-11T11:28:51.609Z,86.30
2019-03-11T11:33:57.656Z,73.10
2019-03-11T11:39:05.089Z,63.20
2019-03-11T11:44:12.649Z,66.20
2019-03-11T11:49:18.817Z,91.50
2019-03-11T11:54:24.802Z,91.50
2019-03-11T11:59:30.858Z,91.50
2019-03-11T12:04:37.132Z,90.40
2019-03-11T12:09:43.273Z,86.50
2019-03-11T12:14:49.250Z,88.20
2019-03-11T12:19:55.329Z,76.80
2019-03-11T12:25:01.245Z,79.80
2019-03-11T12:30:09.725Z,70.80
2019-03-11T12:35:15.769Z,76.90
2019-03-11T12:40:21.833Z,80.60
2019-03-11T12:45:27.907Z,80.00
2019-03-11T12:50:34.071Z,76.90
2019-03-11T12:55:40.038Z,77.30
2019-03-11T13:00:46.292Z,79.30
2019-03-11T13:05:52.387Z,83.10
2019-03-11T13:10:58.559Z,86.40
2019-03-11T13:16:04.555Z,82.60
2019-03-11T13:21:31.369Z,84.10
2019-03-11T13:26:37.388Z,83.80
2019-03-11T13:31:43.355Z,93.10
2019-03-11T13:36:49.541Z,97.20
2019-03-11T13:41:55.819Z,96.40
2019-03-11T13:47:01.976Z,97.20
2019-03-11T13:52:08.041Z,97.70
2019-03-11T13:57:14.260Z,97.20
2019-03-11T14:02:20.243Z,96.20
2019-03-11T14:07:26.308Z,96.00
2019-03-11T14:12:32.369Z,96.50
2019-03-11T14:17:38.359Z,96.70
2019-03-11T14:22:44.336Z,95.80
2019-03-11T14:27:50.431Z,94.60
2019-03-11T14:32:56.436Z,93.80
2019-03-11T14:38:02.656Z,98.10
2019-03-11T14:43:08.808Z,99.90
2019-03-11T14:48:14.892Z,99.90
2019-03-11T14:53:21.070Z,99.90
2019-03-11T14:58:29.602Z,99.90
2019-03-11T15:03:34.989Z,99.90
2019-03-11T15:08:41.076Z,99.90
2019-03-11T15:13:47.039Z,99.90
2019-03-11T15:18:53.184Z,99.90
2019-03-11T15:23:59.276Z,99.20
2019-03-11T15:29:05.334Z,98.60
2019-03-11T15:34:11.420Z,98.20
2019-03-11T15:39:17.461Z,98.40
2019-03-11T15:44:23.667Z,98.10
2019-03-11T15:49:29.743Z,98.70
2019-03-11T15:54:36.031Z,99.00
2019-03-11T15:59:42.297Z,98.40
2019-03-11T16:04:48.554Z,98.50
2019-03-11T16:09:54.717Z,97.90
2019-03-11T16:15:00.809Z,97.60
2019-03-11T16:20:08.795Z,98.10
2019-03-11T16:25:14.812Z,98.40
2019-03-11T16:30:21.413Z,97.80
2019-03-11T16:35:28.509Z,98.20
2019-03-11T16:40:34.840Z,98.40
2019-03-11T16:45:40.994Z,98.20
2019-03-11T16:50:46.971Z,98.10
2019-03-11T16:55:53.115Z,98.60
2019-03-11T17:01:01.330Z,98.40
2019-03-11T17:06:08.432Z,98.50
2019-03-11T17:11:14.660Z,98.60
2019-03-11T17:16:20.806Z,98.40
2019-03-11T17:21:26.972Z,98.50
2019-03-11T17:26:33.032Z,98.50
2019-03-11T17:31:40.149Z,98.50
2019-03-11T17:36:46.264Z,98.80
2019-03-11T17:41:52.355Z,99.10
2019-03-11T17:46:58.459Z,99.60
2019-03-11T17:52:04.803Z,99.90
2019-03-11T17:57:11.247Z,99.90
2019-03-11T18:02:18.891Z,99.90
2019-03-11T18:07:25.102Z,99.90
2019-03-11T18:12:31.480Z,99.90
2019-03-11T18:17:37.834Z,99.90
2019-03-11T18:22:43.869Z,99.90
2019-03-11T18:27:50.943Z,99.90
2019-03-11T18:32:57.283Z,99.90
2019-03-11T18:38:05.361Z,99.90
2019-03-11T18:43:20.558Z,99.90
2019-03-11T18:48:20.407Z,99.90
2019-03-11T18:53:26.558Z,99.90
2019-03-11T18:58:32.633Z,99.90
2019-03-11T19:03:38.712Z,99.90
2019-03-11T19:08:45.195Z,99.90
2019-03-11T19:13:51.420Z,99.90
2019-03-11T19:18:57.629Z,99.90
2019-03-11T19:24:03.920Z,99.90
2019-03-11T19:29:10.095Z,99.90
2019-03-11T19:34:16.152Z,99.90
2019-03-11T19:39:22.702Z,99.90
2019-03-11T19:44:28.855Z,99.90
2019-03-11T19:49:34.950Z,99.90
2019-03-11T19:54:41.073Z,99.90
2019-03-11T19:59:47.210Z,99.90
2019-03-11T20:04:53.235Z,99.90
2019-03-11T20:09:59.519Z,99.90
2019-03-11T20:15:05.878Z,99.90
2019-03-11T20:20:12.790Z,99.90
2019-03-11T20:25:21.223Z,99.90
2019-03-11T20:30:27.512Z,99.90
2019-03-11T20:35:33.736Z,99.90
2019-03-11T20:40:39.973Z,99.90
2019-03-11T20:45:46.286Z,99.90
2019-03-11T20:50:52.481Z,99.90
2019-03-11T20:55:58.559Z,99.90
2019-03-11T21:01:05.253Z,99.90
2019-03-11T21:06:11.383Z,99.90
2019-03-11T21:11:17.476Z,99.90
2019-03-11T21:16:23.773Z,99.90
2019-03-11T21:21:29.967Z,99.90
2019-03-11T21:26:36.077Z,99.90
2019-03-11T21:31:42.257Z,99.90
2019-03-11T21:36:50.715Z,99.90
2019-03-11T21:41:56.037Z,99.90
2019-03-11T21:47:02.217Z,99.90
2019-03-11T21:52:08.464Z,99.90
2019-03-11T21:57:14.574Z,99.90
2019-03-11T22:02:20.694Z,99.90
2019-03-11T22:07:26.757Z,99.90
2019-03-11T22:12:32.867Z,99.90
2019-03-11T22:17:39.050Z,99.90
2019-03-11T22:22:45.299Z,99.90
2019-03-11T22:27:51.297Z,99.90
2019-03-11T22:32:57.392Z,99.90
2019-03-11T22:38:03.607Z,99.90
2019-03-11T22:43:10.566Z,99.90
2019-03-11T22:48:16.578Z,99.90
2019-03-11T22:53:22.732Z,99.90
2019-03-11T22:58:28.878Z,99.90
2019-03-11T23:03:34.974Z,99.90
2019-03-11T23:08:41.057Z,99.90
2019-03-11T23:13:48.060Z,99.90
2019-03-11T23:18:54.409Z,99.90
2019-03-11T23:24:00.499Z,99.90
2019-03-11T23:29:06.671Z,99.90
2019-03-11T23:34:12.828Z,99.90
2019-03-11T23:39:19.029Z,99.90
2019-03-11T23:44:25.092Z,99.90
2019-03-11T23:49:31.170Z,99.90
2019-03-11T23:54:37.324Z,99.90
2019-03-11T23:59:44.464Z,99.90
